Date,TemperatureHighF,TemperatureAvgF,TemperatureLowF,DewpointHighF,DewpointAvgF,DewpointLowF,HumidityHigh,HumidityAvg,HumidityLow,PressureMaxIn,PressureMinIn,WindSpeedMaxMPH,WindSpeedAvgMPH,GustSpeedMaxMPH,PrecipitationSumIn
2013-1-1,44.8,40.1,35.6,32.5,13.0,-15.5,74,39,10,30.17,30.01,15,4,15,0.07
2013-1-2,35.8,31.5,28.4,27.7,16.1,6.8,75,54,38,30.24,30.04,16,2,18,0.05
2013-1-3,35.8,29.7,27.3,18.0,-0.4,-20.0,60,32,10,30.28,30.20,8,2,14,0.00
2013-1-4,35.8,27.9,22.1,-3.5,-10.4,-20.4,31,19,10,30.34,30.25,17,10,33,0.00
2013-1-5,47.1,34.1,25.3,-5.3,-10.9,-19.9,25,14,10,30.44,30.29,16,6,24,0.00
2013-1-6,40.6,34.9,30.2,10.6,6.5,-9.1,43,30,14,30.29,30.15,13,5,17,0.01
2013-1-7,46.4,34.9,27.0,3.5,-5.4,-15.8,34,19,10,30.47,30.24,14,6,18,0.00
2013-1-8,51.6,40.0,28.6,20.3,0.4,-11.1,41,21,10,30.49,30.42,7,2,8,0.00
2013-1-9,61.5,49.9,41.9,34.8,26.5,11.6,67,43,14,30.54,30.44,10,3,17,0.00
2013-1-10,60.8,47.8,41.7,29.4,2.4,-8.1,48,17,10,30.63,30.50,11,3,15,0.00
2013-1-11,53.1,44.3,35.2,44.7,28.4,-9.7,77,58,10,30.50,30.25,10,3,15,0.04
2013-1-12,70.0,60.6,52.5,48.1,41.5,28.0,71,52,21,30.30,30.24,9,3,12,0.00
2013-1-13,69.6,61.4,58.1,41.7,36.7,19.2,53,41,15,30.26,30.17,10,5,16,0.00
2013-1-14,60.4,51.0,39.6,48.9,42.2,36.3,89,73,46,30.33,30.20,11,4,13,0.52
2013-1-15,42.6,38.0,33.4,40.5,36.1,31.6,94,93,88,30.32,30.16,4,2,6,0.00
2013-1-16,60.1,45.9,27.5,51.0,36.4,2.1,99,74,33,30.23,29.92,16,3,16,0.02
2013-1-17,41.9,34.4,28.9,33.2,25.2,12.9,80,69,43,30.04,29.88,12,4,14,0.37
2013-1-18,32.4,26.4,22.1,22.9,5.2,-22.4,80,44,10,30.34,30.05,0,0,0,0.06
2013-1-19,57.9,36.8,24.8,1.7,-8.4,-16.8,27,15,10,30.29,30.00,5,1,8,0.00
2013-1-20,45.3,38.6,33.8,-8.0,-13.1,-16.9,12,10,10,30.00,29.91,23,7,23,0.01
2013-1-21,50.7,35.2,24.6,-3.8,-15.8,-24.1,10,10,10,29.97,29.80,15,5,18,0.00
2013-1-22,23.4,16.5,11.3,-25.1,-30.4,-34.5,10,10,10,30.05,29.83,24,8,24,0.00
2013-1-23,31.1,21.4,10.0,-19.0,-26.6,-35.5,10,10,10,30.11,29.88,11,4,14,0.00
2013-1-24,33.6,20.6,10.9,-17.1,-27.2,-34.8,10,10,10,30.28,29.82,24,10,33,0.00
2013-1-25,32.4,17.9,11.1,7.0,-19.0,-34.6,36,19,10,30.26,29.89,7,3,13,0.00
2013-1-26,37.8,28.8,21.9,4.3,-12.8,-22.7,30,16,10,30.22,29.90,17,8,18,0.07
2013-1-27,33.4,25.7,17.6,-11.7,-16.8,-23.2,25,15,10,30.37,30.22,14,3,14,0.00
2013-1-28,61.7,43.7,30.6,12.2,1.8,-19.0,39,19,10,30.26,30.11,6,2,10,0.01
2013-1-29,72.3,56.5,46.0,27.6,12.6,0.4,31,19,10,30.14,29.99,9,4,14,0.00
2013-1-30,61.2,57.5,44.6,54.9,44.2,27.3,89,62,30,29.97,29.39,25,8,32,1.63
2013-1-31,46.0,32.0,26.8,34.4,-6.5,-21.4,65,22,10,29.81,29.39,16,7,25,0.01